sensor_id;sensor_type;location;lat;lon;timestamp;P1;durP1;ratioP1;P2;durP2;ratioP2
43160;SDS011;40968;52.342;5.528;2022-11-15T00:00:43;78.35;;;21.42;;
43160;SDS011;40968;52.342;5.528;2022-11-15T00:03:12;73.13;;;21.55;;
43160;SDS011;40968;52.342;5.528;2022-11-15T00:05:41;55.25;;;20.35;;
43160;SDS011;40968;52.342;5.528;2022-11-15T00:08:07;70.18;;;22.48;;
43160;SDS011;40968;52.342;5.528;2022-11-15T00:10:34;68.90;;;22.45;;
43160;SDS011;40968;52.342;5.528;2022-11-15T00:13:03;64.90;;;21.73;;
43160;SDS011;40968;52.342;5.528;2022-11-15T00:15:31;79.10;;;23.30;;
43160;SDS011;40968;52.342;5.528;2022-11-15T00:17:57;73.25;;;22.48;;
43160;SDS011;40968;52.342;5.528;2022-11-15T00:20:24;78.18;;;23.92;;
43160;SDS011;40968;52.342;5.528;2022-11-15T00:22:52;72.45;;;23.58;;
43160;SDS011;40968;52.342;5.528;2022-11-15T00:25:18;73.68;;;25.48;;
43160;SDS011;40968;52.342;5.528;2022-11-15T00:27:45;79.72;;;23.42;;
43160;SDS011;40968;52.342;5.528;2022-11-15T00:30:12;87.75;;;23.45;;
43160;SDS011;40968;52.342;5.528;2022-11-15T00:32:38;81.47;;;23.08;;
43160;SDS011;40968;52.342;5.528;2022-11-15T00:35:05;80.05;;;23.65;;
43160;SDS011;40968;52.342;5.528;2022-11-15T00:37:32;93.55;;;26.13;;
43160;SDS011;40968;52.342;5.528;2022-11-15T00:40:00;87.95;;;26.40;;
43160;SDS011;40968;52.342;5.528;2022-11-15T00:42:27;82.20;;;25.80;;
43160;SDS011;40968;52.342;5.528;2022-11-15T00:44:53;83.30;;;24.40;;
43160;SDS011;40968;52.342;5.528;2022-11-15T00:47:20;85.97;;;24.15;;
43160;SDS011;40968;52.342;5.528;2022-11-15T00:49:46;92.25;;;26.00;;
43160;SDS011;40968;52.342;5.528;2022-11-15T00:52:13;74.90;;;24.48;;
43160;SDS011;40968;52.342;5.528;2022-11-15T00:54:40;86.07;;;25.73;;
43160;SDS011;40968;52.342;5.528;2022-11-15T00:57:08;103.93;;;27.52;;
43160;SDS011;40968;52.342;5.528;2022-11-15T00:59:34;85.85;;;27.48;;
43160;SDS011;40968;52.342;5.528;2022-11-15T01:02:01;78.60;;;25.05;;
43160;SDS011;40968;52.342;5.528;2022-11-15T01:04:27;74.85;;;24.08;;
43160;SDS011;40968;52.342;5.528;2022-11-15T01:06:54;100.82;;;29.45;;
43160;SDS011;40968;52.342;5.528;2022-11-15T01:09:21;95.05;;;28.83;;
43160;SDS011;40968;52.342;5.528;2022-11-15T01:11:47;95.40;;;28.35;;
43160;SDS011;40968;52.342;5.528;2022-11-15T01:14:15;107.45;;;30.63;;
43160;SDS011;40968;52.342;5.528;2022-11-15T01:16:42;100.35;;;30.60;;
43160;SDS011;40968;52.342;5.528;2022-11-15T01:19:08;110.90;;;31.83;;
43160;SDS011;40968;52.342;5.528;2022-11-15T01:21:35;114.22;;;31.80;;
43160;SDS011;40968;52.342;5.528;2022-11-15T01:24:02;119.03;;;31.48;;
43160;SDS011;40968;52.342;5.528;2022-11-15T01:26:29;120.63;;;32.78;;
43160;SDS011;40968;52.342;5.528;2022-11-15T01:28:55;108.35;;;32.45;;
43160;SDS011;40968;52.342;5.528;2022-11-15T01:31:23;109.13;;;31.02;;
43160;SDS011;40968;52.342;5.528;2022-11-15T01:33:50;113.55;;;32.45;;
43160;SDS011;40968;52.342;5.528;2022-11-15T01:36:17;117.03;;;34.13;;
43160;SDS011;40968;52.342;5.528;2022-11-15T01:38:46;111.68;;;32.95;;
43160;SDS011;40968;52.342;5.528;2022-11-15T01:41:16;132.05;;;35.53;;
43160;SDS011;40968;52.342;5.528;2022-11-15T01:43:46;113.78;;;32.05;;
43160;SDS011;40968;52.342;5.528;2022-11-15T01:46:19;122.25;;;36.10;;
43160;SDS011;40968;52.342;5.528;2022-11-15T01:48:52;101.97;;;33.17;;
43160;SDS011;40968;52.342;5.528;2022-11-15T01:51:22;118.65;;;32.42;;
43160;SDS011;40968;52.342;5.528;2022-11-15T01:53:54;128.98;;;34.78;;
43160;SDS011;40968;52.342;5.528;2022-11-15T01:58:53;104.80;;;32.13;;
43160;SDS011;40968;52.342;5.528;2022-11-15T02:01:24;116.53;;;33.17;;
43160;SDS011;40968;52.342;5.528;2022-11-15T02:03:54;127.93;;;35.60;;
43160;SDS011;40968;52.342;5.528;2022-11-15T02:06:25;107.80;;;35.13;;
43160;SDS011;40968;52.342;5.528;2022-11-15T02:08:52;106.10;;;31.42;;
43160;SDS011;40968;52.342;5.528;2022-11-15T02:11:19;106.50;;;32.20;;
43160;SDS011;40968;52.342;5.528;2022-11-15T02:13:45;107.47;;;33.83;;
43160;SDS011;40968;52.342;5.528;2022-11-15T02:16:13;99.90;;;30.92;;
43160;SDS011;40968;52.342;5.528;2022-11-15T02:18:55;106.70;;;33.88;;
43160;SDS011;40968;52.342;5.528;2022-11-15T02:21:27;99.35;;;30.00;;
43160;SDS011;40968;52.342;5.528;2022-11-15T02:27:27;111.55;;;35.03;;
43160;SDS011;40968;52.342;5.528;2022-11-15T02:30:16;102.90;;;29.48;;
43160;SDS011;40968;52.342;5.528;2022-11-15T02:32:47;119.70;;;35.35;;
43160;SDS011;40968;52.342;5.528;2022-11-15T02:35:19;118.57;;;35.47;;
43160;SDS011;40968;52.342;5.528;2022-11-15T02:37:56;112.88;;;34.80;;
43160;SDS011;40968;52.342;5.528;2022-11-15T02:40:27;135.90;;;37.25;;
43160;SDS011;40968;52.342;5.528;2022-11-15T02:43:04;116.45;;;35.38;;
43160;SDS011;40968;52.342;5.528;2022-11-15T02:45:55;116.78;;;36.55;;
43160;SDS011;40968;52.342;5.528;2022-11-15T02:48:26;124.60;;;37.58;;
43160;SDS011;40968;52.342;5.528;2022-11-15T02:50:52;117.18;;;35.40;;
43160;SDS011;40968;52.342;5.528;2022-11-15T02:53:23;113.00;;;34.80;;
43160;SDS011;40968;52.342;5.528;2022-11-15T02:58:23;127.90;;;38.67;;
43160;SDS011;40968;52.342;5.528;2022-11-15T03:01:04;116.25;;;35.60;;
43160;SDS011;40968;52.342;5.528;2022-11-15T03:03:42;127.82;;;39.38;;
43160;SDS011;40968;52.342;5.528;2022-11-15T03:06:21;127.78;;;38.83;;
43160;SDS011;40968;52.342;5.528;2022-11-15T03:08:57;125.47;;;37.47;;
43160;SDS011;40968;52.342;5.528;2022-11-15T03:11:29;137.00;;;40.70;;
43160;SDS011;40968;52.342;5.528;2022-11-15T03:14:02;123.80;;;39.05;;
43160;SDS011;40968;52.342;5.528;2022-11-15T03:16:38;122.13;;;40.03;;
43160;SDS011;40968;52.342;5.528;2022-11-15T03:19:12;118.97;;;37.35;;
43160;SDS011;40968;52.342;5.528;2022-11-15T03:21:43;127.88;;;36.95;;
43160;SDS011;40968;52.342;5.528;2022-11-15T03:24:11;129.38;;;39.83;;
43160;SDS011;40968;52.342;5.528;2022-11-15T03:26:40;121.20;;;38.40;;
43160;SDS011;40968;52.342;5.528;2022-11-15T03:29:11;99.95;;;32.67;;
43160;SDS011;40968;52.342;5.528;2022-11-15T03:31:43;127.15;;;38.53;;
43160;SDS011;40968;52.342;5.528;2022-11-15T03:34:15;110.85;;;38.10;;
43160;SDS011;40968;52.342;5.528;2022-11-15T03:36:48;125.60;;;39.38;;
43160;SDS011;40968;52.342;5.528;2022-11-15T03:39:16;135.15;;;40.03;;
43160;SDS011;40968;52.342;5.528;2022-11-15T03:41:46;113.68;;;38.13;;
43160;SDS011;40968;52.342;5.528;2022-11-15T03:44:20;112.35;;;37.03;;
43160;SDS011;40968;52.342;5.528;2022-11-15T03:46:56;144.15;;;41.95;;
43160;SDS011;40968;52.342;5.528;2022-11-15T03:49:27;123.80;;;40.08;;
43160;SDS011;40968;52.342;5.528;2022-11-15T03:51:59;152.82;;;43.90;;
43160;SDS011;40968;52.342;5.528;2022-11-15T03:54:27;129.43;;;38.58;;
43160;SDS011;40968;52.342;5.528;2022-11-15T03:56:54;135.38;;;39.80;;
43160;SDS011;40968;52.342;5.528;2022-11-15T03:59:20;144.15;;;41.03;;
43160;SDS011;40968;52.342;5.528;2022-11-15T04:01:47;119.20;;;36.78;;
43160;SDS011;40968;52.342;5.528;2022-11-15T04:04:15;128.88;;;36.42;;
43160;SDS011;40968;52.342;5.528;2022-11-15T04:06:42;134.93;;;41.00;;
43160;SDS011;40968;52.342;5.528;2022-11-15T04:09:08;144.30;;;41.90;;
43160;SDS011;40968;52.342;5.528;2022-11-15T04:11:35;133.18;;;38.38;;
43160;SDS011;40968;52.342;5.528;2022-11-15T04:14:02;141.90;;;42.92;;
43160;SDS011;40968;52.342;5.528;2022-11-15T04:16:28;129.25;;;41.33;;
43160;SDS011;40968;52.342;5.528;2022-11-15T04:18:55;140.48;;;43.08;;
43160;SDS011;40968;52.342;5.528;2022-11-15T04:21:37;124.45;;;41.10;;
43160;SDS011;40968;52.342;5.528;2022-11-15T04:24:21;135.50;;;40.63;;
43160;SDS011;40968;52.342;5.528;2022-11-15T04:26:48;147.65;;;39.97;;
43160;SDS011;40968;52.342;5.528;2022-11-15T04:29:15;153.35;;;41.28;;
43160;SDS011;40968;52.342;5.528;2022-11-15T04:31:59;131.95;;;39.88;;
43160;SDS011;40968;52.342;5.528;2022-11-15T04:34:25;114.70;;;38.00;;
43160;SDS011;40968;52.342;5.528;2022-11-15T04:36:53;125.28;;;40.78;;
43160;SDS011;40968;52.342;5.528;2022-11-15T04:39:38;131.43;;;42.75;;
43160;SDS011;40968;52.342;5.528;2022-11-15T04:42:05;125.72;;;39.10;;
43160;SDS011;40968;52.342;5.528;2022-11-15T04:44:31;111.68;;;37.25;;
43160;SDS011;40968;52.342;5.528;2022-11-15T04:46:58;116.13;;;39.45;;
43160;SDS011;40968;52.342;5.528;2022-11-15T04:49:24;120.00;;;38.92;;
43160;SDS011;40968;52.342;5.528;2022-11-15T04:51:51;105.95;;;37.65;;
43160;SDS011;40968;52.342;5.528;2022-11-15T04:54:19;109.20;;;37.45;;
43160;SDS011;40968;52.342;5.528;2022-11-15T04:56:46;97.82;;;32.75;;
43160;SDS011;40968;52.342;5.528;2022-11-15T04:59:12;135.50;;;38.45;;
43160;SDS011;40968;52.342;5.528;2022-11-15T05:01:39;102.45;;;36.17;;
43160;SDS011;40968;52.342;5.528;2022-11-15T05:04:06;114.70;;;35.58;;
43160;SDS011;40968;52.342;5.528;2022-11-15T05:06:44;97.88;;;35.25;;
43160;SDS011;40968;52.342;5.528;2022-11-15T05:09:11;106.88;;;32.92;;
43160;SDS011;40968;52.342;5.528;2022-11-15T05:11:40;113.53;;;34.92;;
43160;SDS011;40968;52.342;5.528;2022-11-15T05:14:07;96.57;;;32.85;;
43160;SDS011;40968;52.342;5.528;2022-11-15T05:16:33;98.45;;;32.25;;
43160;SDS011;40968;52.342;5.528;2022-11-15T05:19:00;97.47;;;33.40;;
43160;SDS011;40968;52.342;5.528;2022-11-15T05:21:27;106.88;;;33.92;;
43160;SDS011;40968;52.342;5.528;2022-11-15T05:23:53;92.72;;;29.63;;
43160;SDS011;40968;52.342;5.528;2022-11-15T05:26:20;85.35;;;29.48;;
43160;SDS011;40968;52.342;5.528;2022-11-15T05:28:51;98.90;;;33.72;;
43160;SDS011;40968;52.342;5.528;2022-11-15T05:31:18;93.43;;;33.38;;
43160;SDS011;40968;52.342;5.528;2022-11-15T05:33:45;89.80;;;32.33;;
43160;SDS011;40968;52.342;5.528;2022-11-15T05:36:12;97.47;;;33.25;;
43160;SDS011;40968;52.342;5.528;2022-11-15T05:38:43;87.22;;;30.98;;
43160;SDS011;40968;52.342;5.528;2022-11-15T05:41:10;82.70;;;29.92;;
43160;SDS011;40968;52.342;5.528;2022-11-15T05:43:38;84.20;;;30.13;;
43160;SDS011;40968;52.342;5.528;2022-11-15T05:46:09;89.57;;;28.95;;
43160;SDS011;40968;52.342;5.528;2022-11-15T05:48:36;85.78;;;29.98;;
43160;SDS011;40968;52.342;5.528;2022-11-15T05:51:06;76.83;;;27.23;;
43160;SDS011;40968;52.342;5.528;2022-11-15T05:53:33;91.38;;;29.73;;
43160;SDS011;40968;52.342;5.528;2022-11-15T05:56:01;74.05;;;27.63;;
43160;SDS011;40968;52.342;5.528;2022-11-15T05:58:30;85.75;;;26.67;;
43160;SDS011;40968;52.342;5.528;2022-11-15T06:00:57;71.78;;;25.73;;
43160;SDS011;40968;52.342;5.528;2022-11-15T06:03:25;89.35;;;27.35;;
43160;SDS011;40968;52.342;5.528;2022-11-15T06:05:51;74.50;;;27.10;;
43160;SDS011;40968;52.342;5.528;2022-11-15T06:08:18;76.97;;;27.83;;
43160;SDS011;40968;52.342;5.528;2022-11-15T06:10:44;70.63;;;25.88;;
43160;SDS011;40968;52.342;5.528;2022-11-15T06:13:11;86.03;;;27.80;;
43160;SDS011;40968;52.342;5.528;2022-11-15T06:15:37;67.72;;;25.35;;
43160;SDS011;40968;52.342;5.528;2022-11-15T06:18:04;79.65;;;27.33;;
43160;SDS011;40968;52.342;5.528;2022-11-15T06:20:32;72.30;;;27.75;;
43160;SDS011;40968;52.342;5.528;2022-11-15T06:22:59;99.82;;;28.58;;
43160;SDS011;40968;52.342;5.528;2022-11-15T06:25:26;66.93;;;26.10;;
43160;SDS011;40968;52.342;5.528;2022-11-15T06:27:54;86.00;;;27.80;;
43160;SDS011;40968;52.342;5.528;2022-11-15T06:30:22;79.57;;;27.58;;
43160;SDS011;40968;52.342;5.528;2022-11-15T06:32:50;80.40;;;27.95;;
43160;SDS011;40968;52.342;5.528;2022-11-15T06:35:16;77.93;;;27.25;;
43160;SDS011;40968;52.342;5.528;2022-11-15T06:37:44;70.35;;;26.67;;
43160;SDS011;40968;52.342;5.528;2022-11-15T06:40:11;71.93;;;26.73;;
43160;SDS011;40968;52.342;5.528;2022-11-15T06:42:38;69.30;;;25.73;;
43160;SDS011;40968;52.342;5.528;2022-11-15T06:45:05;65.20;;;26.25;;
43160;SDS011;40968;52.342;5.528;2022-11-15T06:47:32;84.57;;;27.48;;
43160;SDS011;40968;52.342;5.528;2022-11-15T06:49:58;77.60;;;27.17;;
43160;SDS011;40968;52.342;5.528;2022-11-15T06:52:25;85.13;;;28.80;;
43160;SDS011;40968;52.342;5.528;2022-11-15T06:54:53;81.32;;;29.10;;
43160;SDS011;40968;52.342;5.528;2022-11-15T06:57:19;74.78;;;26.95;;
43160;SDS011;40968;52.342;5.528;2022-11-15T06:59:46;76.70;;;27.52;;
43160;SDS011;40968;52.342;5.528;2022-11-15T07:02:13;77.75;;;25.15;;
43160;SDS011;40968;52.342;5.528;2022-11-15T07:04:39;76.65;;;25.88;;
43160;SDS011;40968;52.342;5.528;2022-11-15T07:07:06;72.50;;;25.67;;
43160;SDS011;40968;52.342;5.528;2022-11-15T07:09:32;75.78;;;26.67;;
43160;SDS011;40968;52.342;5.528;2022-11-15T07:12:00;80.03;;;26.98;;
43160;SDS011;40968;52.342;5.528;2022-11-15T07:14:27;80.85;;;28.58;;
43160;SDS011;40968;52.342;5.528;2022-11-15T07:16:54;70.80;;;25.00;;
43160;SDS011;40968;52.342;5.528;2022-11-15T07:19:20;74.57;;;26.20;;
43160;SDS011;40968;52.342;5.528;2022-11-15T07:21:47;67.80;;;24.42;;
43160;SDS011;40968;52.342;5.528;2022-11-15T07:24:13;77.22;;;26.08;;
43160;SDS011;40968;52.342;5.528;2022-11-15T07:26:40;74.18;;;26.25;;
43160;SDS011;40968;52.342;5.528;2022-11-15T07:29:08;73.72;;;27.00;;
43160;SDS011;40968;52.342;5.528;2022-11-15T07:31:34;77.45;;;26.98;;
43160;SDS011;40968;52.342;5.528;2022-11-15T07:34:01;74.38;;;26.92;;
43160;SDS011;40968;52.342;5.528;2022-11-15T07:36:27;75.30;;;26.05;;
43160;SDS011;40968;52.342;5.528;2022-11-15T07:38:54;86.38;;;27.05;;
43160;SDS011;40968;52.342;5.528;2022-11-15T07:41:21;76.18;;;25.60;;
43160;SDS011;40968;52.342;5.528;2022-11-15T07:43:50;73.75;;;25.48;;
43160;SDS011;40968;52.342;5.528;2022-11-15T07:46:18;78.05;;;25.38;;
43160;SDS011;40968;52.342;5.528;2022-11-15T07:48:45;56.92;;;21.58;;
43160;SDS011;40968;52.342;5.528;2022-11-15T07:51:12;75.00;;;24.75;;
43160;SDS011;40968;52.342;5.528;2022-11-15T07:53:39;72.18;;;24.50;;
43160;SDS011;40968;52.342;5.528;2022-11-15T07:56:06;76.32;;;24.55;;
43160;SDS011;40968;52.342;5.528;2022-11-15T07:58:32;72.22;;;24.65;;
43160;SDS011;40968;52.342;5.528;2022-11-15T08:01:01;74.63;;;23.70;;
43160;SDS011;40968;52.342;5.528;2022-11-15T08:03:30;73.40;;;24.88;;
43160;SDS011;40968;52.342;5.528;2022-11-15T08:05:56;63.30;;;23.40;;
43160;SDS011;40968;52.342;5.528;2022-11-15T08:08:23;59.22;;;22.38;;
43160;SDS011;40968;52.342;5.528;2022-11-15T08:10:50;54.88;;;20.05;;
43160;SDS011;40968;52.342;5.528;2022-11-15T08:13:16;68.03;;;21.80;;
43160;SDS011;40968;52.342;5.528;2022-11-15T08:15:43;67.82;;;22.35;;
43160;SDS011;40968;52.342;5.528;2022-11-15T08:18:10;69.47;;;21.98;;
43160;SDS011;40968;52.342;5.528;2022-11-15T08:20:40;59.35;;;22.33;;
43160;SDS011;40968;52.342;5.528;2022-11-15T08:23:06;57.20;;;19.67;;
43160;SDS011;40968;52.342;5.528;2022-11-15T08:28:15;53.97;;;20.63;;
43160;SDS011;40968;52.342;5.528;2022-11-15T08:30:43;62.63;;;20.70;;
43160;SDS011;40968;52.342;5.528;2022-11-15T08:33:10;63.40;;;20.40;;
43160;SDS011;40968;52.342;5.528;2022-11-15T08:35:39;53.83;;;19.92;;
43160;SDS011;40968;52.342;5.528;2022-11-15T08:38:07;56.70;;;20.00;;
43160;SDS011;40968;52.342;5.528;2022-11-15T08:40:33;63.30;;;21.42;;
43160;SDS011;40968;52.342;5.528;2022-11-15T08:43:01;63.58;;;21.27;;
43160;SDS011;40968;52.342;5.528;2022-11-15T08:45:27;71.97;;;21.50;;
43160;SDS011;40968;52.342;5.528;2022-11-15T08:47:58;53.45;;;19.83;;
43160;SDS011;40968;52.342;5.528;2022-11-15T09:11:07;51.08;;;16.75;;
43160;SDS011;40968;52.342;5.528;2022-11-15T09:14:20;50.75;;;17.52;;
43160;SDS011;40968;52.342;5.528;2022-11-15T09:17:29;45.75;;;15.93;;
43160;SDS011;40968;52.342;5.528;2022-11-15T09:20:43;53.10;;;15.77;;
43160;SDS011;40968;52.342;5.528;2022-11-15T09:23:49;45.50;;;16.10;;
43160;SDS011;40968;52.342;5.528;2022-11-15T09:26:18;45.33;;;14.93;;
43160;SDS011;40968;52.342;5.528;2022-11-15T09:28:44;46.92;;;14.80;;
43160;SDS011;40968;52.342;5.528;2022-11-15T09:31:11;45.58;;;14.35;;
43160;SDS011;40968;52.342;5.528;2022-11-15T09:33:37;36.40;;;12.75;;
43160;SDS011;40968;52.342;5.528;2022-11-15T09:36:06;47.55;;;14.27;;
43160;SDS011;40968;52.342;5.528;2022-11-15T09:38:34;39.17;;;12.32;;
43160;SDS011;40968;52.342;5.528;2022-11-15T09:44:02;36.72;;;11.52;;
43160;SDS011;40968;52.342;5.528;2022-11-15T09:46:42;40.60;;;12.48;;
43160;SDS011;40968;52.342;5.528;2022-11-15T09:49:20;36.13;;;11.40;;
43160;SDS011;40968;52.342;5.528;2022-11-15T09:51:49;26.90;;;10.20;;
43160;SDS011;40968;52.342;5.528;2022-11-15T09:54:20;31.23;;;10.10;;
43160;SDS011;40968;52.342;5.528;2022-11-15T09:56:54;27.75;;;9.90;;
43160;SDS011;40968;52.342;5.528;2022-11-15T09:59:27;39.60;;;11.45;;
43160;SDS011;40968;52.342;5.528;2022-11-15T10:04:38;27.95;;;9.18;;
43160;SDS011;40968;52.342;5.528;2022-11-15T10:07:06;24.75;;;8.50;;
43160;SDS011;40968;52.342;5.528;2022-11-15T10:09:42;41.42;;;10.27;;
43160;SDS011;40968;52.342;5.528;2022-11-15T10:12:14;29.67;;;10.10;;
43160;SDS011;40968;52.342;5.528;2022-11-15T10:14:41;43.15;;;10.68;;
43160;SDS011;40968;52.342;5.528;2022-11-15T10:17:21;28.08;;;8.88;;
43160;SDS011;40968;52.342;5.528;2022-11-15T10:20:00;25.23;;;8.40;;
43160;SDS011;40968;52.342;5.528;2022-11-15T10:22:38;21.58;;;8.18;;
43160;SDS011;40968;52.342;5.528;2022-11-15T10:27:43;29.30;;;8.70;;
43160;SDS011;40968;52.342;5.528;2022-11-15T10:30:13;21.75;;;8.35;;
43160;SDS011;40968;52.342;5.528;2022-11-15T10:32:43;23.70;;;7.88;;
43160;SDS011;40968;52.342;5.528;2022-11-15T10:35:21;22.73;;;7.68;;
43160;SDS011;40968;52.342;5.528;2022-11-15T10:37:51;21.33;;;7.57;;
43160;SDS011;40968;52.342;5.528;2022-11-15T10:40:19;21.25;;;7.07;;
43160;SDS011;40968;52.342;5.528;2022-11-15T10:42:49;20.48;;;7.50;;
43160;SDS011;40968;52.342;5.528;2022-11-15T10:45:31;22.88;;;7.25;;
43160;SDS011;40968;52.342;5.528;2022-11-15T10:50:48;21.98;;;7.65;;
43160;SDS011;40968;52.342;5.528;2022-11-15T10:53:17;18.58;;;6.55;;
43160;SDS011;40968;52.342;5.528;2022-11-15T10:55:49;15.70;;;6.43;;
43160;SDS011;40968;52.342;5.528;2022-11-15T10:58:21;16.95;;;5.70;;
43160;SDS011;40968;52.342;5.528;2022-11-15T11:00:56;24.30;;;5.82;;
43160;SDS011;40968;52.342;5.528;2022-11-15T11:03:36;17.35;;;5.75;;
43160;SDS011;40968;52.342;5.528;2022-11-15T11:06:05;15.68;;;5.40;;
43160;SDS011;40968;52.342;5.528;2022-11-15T11:08:34;16.80;;;5.82;;
43160;SDS011;40968;52.342;5.528;2022-11-15T11:11:02;20.67;;;5.80;;
43160;SDS011;40968;52.342;5.528;2022-11-15T11:13:31;12.68;;;4.93;;
43160;SDS011;40968;52.342;5.528;2022-11-15T11:16:04;11.80;;;4.60;;
43160;SDS011;40968;52.342;5.528;2022-11-15T11:18:53;9.68;;;4.18;;
43160;SDS011;40968;52.342;5.528;2022-11-15T11:21:32;8.07;;;3.25;;
43160;SDS011;40968;52.342;5.528;2022-11-15T11:24:08;10.05;;;3.72;;
43160;SDS011;40968;52.342;5.528;2022-11-15T11:26:42;8.07;;;3.20;;
43160;SDS011;40968;52.342;5.528;2022-11-15T11:29:20;7.13;;;3.17;;
43160;SDS011;40968;52.342;5.528;2022-11-15T11:31:59;6.60;;;3.13;;
43160;SDS011;40968;52.342;5.528;2022-11-15T11:34:40;8.20;;;3.17;;
43160;SDS011;40968;52.342;5.528;2022-11-15T11:37:17;12.57;;;3.20;;
43160;SDS011;40968;52.342;5.528;2022-11-15T11:39:52;8.38;;;3.28;;
43160;SDS011;40968;52.342;5.528;2022-11-15T11:42:30;9.80;;;3.03;;
43160;SDS011;40968;52.342;5.528;2022-11-15T11:45:14;12.77;;;2.70;;
43160;SDS011;40968;52.342;5.528;2022-11-15T11:47:51;5.40;;;2.58;;
43160;SDS011;40968;52.342;5.528;2022-11-15T11:50:27;10.73;;;2.72;;
43160;SDS011;40968;52.342;5.528;2022-11-15T11:52:56;8.38;;;2.55;;
43160;SDS011;40968;52.342;5.528;2022-11-15T11:55:24;7.75;;;2.92;;
43160;SDS011;40968;52.342;5.528;2022-11-15T11:57:59;10.60;;;2.88;;
43160;SDS011;40968;52.342;5.528;2022-11-15T12:00:33;10.82;;;2.85;;
43160;SDS011;40968;52.342;5.528;2022-11-15T12:03:08;6.95;;;2.90;;
43160;SDS011;40968;52.342;5.528;2022-11-15T12:05:39;25.02;;;3.50;;
43160;SDS011;40968;52.342;5.528;2022-11-15T12:08:15;12.63;;;2.72;;
43160;SDS011;40968;52.342;5.528;2022-11-15T12:10:51;7.25;;;2.85;;
43160;SDS011;40968;52.342;5.528;2022-11-15T12:13:23;7.78;;;2.67;;
43160;SDS011;40968;52.342;5.528;2022-11-15T12:15:56;6.25;;;2.40;;
43160;SDS011;40968;52.342;5.528;2022-11-15T12:18:26;8.30;;;2.70;;
43160;SDS011;40968;52.342;5.528;2022-11-15T12:20:53;6.60;;;2.50;;
43160;SDS011;40968;52.342;5.528;2022-11-15T12:23:24;12.88;;;2.88;;
43160;SDS011;40968;52.342;5.528;2022-11-15T12:25:55;8.27;;;2.45;;
43160;SDS011;40968;52.342;5.528;2022-11-15T12:28:29;8.77;;;2.58;;
43160;SDS011;40968;52.342;5.528;2022-11-15T12:31:06;7.22;;;2.60;;
43160;SDS011;40968;52.342;5.528;2022-11-15T12:33:41;8.32;;;2.53;;
43160;SDS011;40968;52.342;5.528;2022-11-15T12:36:10;5.18;;;2.40;;
43160;SDS011;40968;52.342;5.528;2022-11-15T12:41:26;5.63;;;2.45;;
43160;SDS011;40968;52.342;5.528;2022-11-15T12:43:54;6.13;;;2.50;;
43160;SDS011;40968;52.342;5.528;2022-11-15T12:49:43;6.25;;;2.70;;
43160;SDS011;40968;52.342;5.528;2022-11-15T12:52:11;9.43;;;2.47;;
43160;SDS011;40968;52.342;5.528;2022-11-15T13:03:25;7.45;;;2.30;;
43160;SDS011;40968;52.342;5.528;2022-11-15T13:05:58;6.15;;;2.30;;
43160;SDS011;40968;52.342;5.528;2022-11-15T13:08:49;6.50;;;2.65;;
43160;SDS011;40968;52.342;5.528;2022-11-15T13:17:17;9.45;;;2.50;;
43160;SDS011;40968;52.342;5.528;2022-11-15T13:19:56;9.07;;;2.30;;
43160;SDS011;40968;52.342;5.528;2022-11-15T13:22:25;7.20;;;2.03;;
43160;SDS011;40968;52.342;5.528;2022-11-15T13:25:16;5.32;;;1.83;;
43160;SDS011;40968;52.342;5.528;2022-11-15T13:27:46;5.63;;;2.40;;
43160;SDS011;40968;52.342;5.528;2022-11-15T13:30:15;8.40;;;2.05;;
43160;SDS011;40968;52.342;5.528;2022-11-15T13:32:46;5.30;;;1.83;;
43160;SDS011;40968;52.342;5.528;2022-11-15T13:35:19;8.00;;;2.00;;
43160;SDS011;40968;52.342;5.528;2022-11-15T13:37:47;9.10;;;1.88;;
43160;SDS011;40968;52.342;5.528;2022-11-15T13:40:18;8.98;;;2.35;;
43160;SDS011;40968;52.342;5.528;2022-11-15T13:42:48;7.50;;;1.85;;
43160;SDS011;40968;52.342;5.528;2022-11-15T13:45:15;6.88;;;2.03;;
43160;SDS011;40968;52.342;5.528;2022-11-15T13:47:50;5.47;;;1.90;;
43160;SDS011;40968;52.342;5.528;2022-11-15T13:50:19;7.10;;;2.00;;
43160;SDS011;40968;52.342;5.528;2022-11-15T13:52:47;8.18;;;2.25;;
43160;SDS011;40968;52.342;5.528;2022-11-15T13:55:15;5.53;;;1.73;;
43160;SDS011;40968;52.342;5.528;2022-11-15T13:57:45;11.07;;;2.08;;
43160;SDS011;40968;52.342;5.528;2022-11-15T14:00:28;7.18;;;1.70;;
43160;SDS011;40968;52.342;5.528;2022-11-15T14:03:04;5.82;;;1.85;;
43160;SDS011;40968;52.342;5.528;2022-11-15T14:05:35;5.72;;;2.30;;
43160;SDS011;40968;52.342;5.528;2022-11-15T14:08:02;5.15;;;1.70;;
43160;SDS011;40968;52.342;5.528;2022-11-15T14:10:39;6.03;;;1.80;;
43160;SDS011;40968;52.342;5.528;2022-11-15T14:13:10;5.13;;;1.65;;
43160;SDS011;40968;52.342;5.528;2022-11-15T14:15:52;7.53;;;1.70;;
43160;SDS011;40968;52.342;5.528;2022-11-15T14:21:11;4.80;;;1.70;;
43160;SDS011;40968;52.342;5.528;2022-11-15T14:23:38;5.50;;;1.70;;
43160;SDS011;40968;52.342;5.528;2022-11-15T14:26:04;5.60;;;1.70;;
43160;SDS011;40968;52.342;5.528;2022-11-15T14:28:32;3.78;;;1.48;;
43160;SDS011;40968;52.342;5.528;2022-11-15T14:33:33;6.00;;;1.48;;
43160;SDS011;40968;52.342;5.528;2022-11-15T14:36:03;5.38;;;1.80;;
43160;SDS011;40968;52.342;5.528;2022-11-15T14:38:33;4.60;;;1.40;;
43160;SDS011;40968;52.342;5.528;2022-11-15T14:41:00;6.80;;;1.35;;
43160;SDS011;40968;52.342;5.528;2022-11-15T14:43:26;4.35;;;1.25;;
43160;SDS011;40968;52.342;5.528;2022-11-15T14:45:53;6.88;;;1.30;;
43160;SDS011;40968;52.342;5.528;2022-11-15T14:48:19;2.60;;;1.27;;
43160;SDS011;40968;52.342;5.528;2022-11-15T14:50:47;6.28;;;2.33;;
43160;SDS011;40968;52.342;5.528;2022-11-15T14:53:14;5.30;;;1.10;;
43160;SDS011;40968;52.342;5.528;2022-11-15T14:55:43;5.57;;;1.10;;
43160;SDS011;40968;52.342;5.528;2022-11-15T14:58:10;3.67;;;1.13;;
43160;SDS011;40968;52.342;5.528;2022-11-15T15:00:38;3.67;;;1.48;;
43160;SDS011;40968;52.342;5.528;2022-11-15T15:03:05;4.53;;;1.30;;
43160;SDS011;40968;52.342;5.528;2022-11-15T15:05:33;6.40;;;1.42;;
43160;SDS011;40968;52.342;5.528;2022-11-15T15:08:01;5.25;;;1.30;;
43160;SDS011;40968;52.342;5.528;2022-11-15T15:10:30;2.38;;;1.20;;
43160;SDS011;40968;52.342;5.528;2022-11-15T15:13:00;5.30;;;1.27;;
43160;SDS011;40968;52.342;5.528;2022-11-15T15:15:31;3.33;;;1.20;;
43160;SDS011;40968;52.342;5.528;2022-11-15T15:17:59;3.70;;;1.15;;
43160;SDS011;40968;52.342;5.528;2022-11-15T15:20:25;4.20;;;1.45;;
43160;SDS011;40968;52.342;5.528;2022-11-15T15:22:52;6.97;;;1.65;;
43160;SDS011;40968;52.342;5.528;2022-11-15T15:25:20;8.60;;;1.50;;
43160;SDS011;40968;52.342;5.528;2022-11-15T15:27:48;4.50;;;1.65;;
43160;SDS011;40968;52.342;5.528;2022-11-15T15:30:16;6.75;;;1.40;;
43160;SDS011;40968;52.342;5.528;2022-11-15T15:32:43;4.20;;;1.40;;
43160;SDS011;40968;52.342;5.528;2022-11-15T15:35:11;5.97;;;1.38;;
43160;SDS011;40968;52.342;5.528;2022-11-15T15:37:38;5.22;;;1.40;;
43160;SDS011;40968;52.342;5.528;2022-11-15T15:40:08;3.85;;;1.38;;
43160;SDS011;40968;52.342;5.528;2022-11-15T15:42:38;2.25;;;1.20;;
43160;SDS011;40968;52.342;5.528;2022-11-15T15:45:05;3.60;;;1.33;;
43160;SDS011;40968;52.342;5.528;2022-11-15T15:47:34;3.03;;;1.25;;
43160;SDS011;40968;52.342;5.528;2022-11-15T15:50:01;3.50;;;1.58;;
43160;SDS011;40968;52.342;5.528;2022-11-15T15:52:28;4.82;;;1.50;;